Accueil
METAR-TAF:

METAR-TAF

Aéroports :

Aéroport de Carcassonne Salvaza

Carcassonne, France

latitude: 43-13N, longitude: 002-19E, altitude: 130 m

Observation

Le bulletin a été fait il y a 37 minutes, à 23:30 UTC
Vent 2 kt de direction variable
Température 18°C
Humidité 83%
Pression 1019 hPa
Visibilité 10 km ou plus
pas de nuages en-dessous de 1500 mètres et pas de cumulonimbus.

METAR: LFMK 112330Z AUTO VRB02KT CAVOK 18/15 Q1019

Heure: 02:07 (00:07 UTC)

Prévision

Le bulletin a été fait il y a 10 heures et 7 minutes, à 14:00 UTC
Prévision valable du 11 à 15 UTC au 12 à 15 UTC
Vent 15 kt de ouest
Visibilité 10 km ou plus
Evoluant progressivement
du 11 à 15 UTC au 11 à 17 UTC
Visibilité 10 km ou plus
pas de nuages en-dessous de 1500 mètres et pas de cumulonimbus.
Evoluant progressivement
du 11 à 23 UTC au 12 à 01 UTC
Vent 5 kt de direction variable

TAF: LFMK 111400Z 1115/1215 28015KT 9999 NSC BECMG 1115/1117 CAVOK BECMG 1123/1201 VRB05KT

Observations et prévisions météorologiques de plus de 4000 aéroports (messages METAR et TAF).

Les stations disponibles sont représentées par des disques jaunes et rouges sur la carte.

Passer la souris dessus pour voir le nom de la station.

Cliquer dessus pour voir les observations et prévisions météorologiques.

Pour changer de carte: cliquez sur les boutons verts avec une croix noire pour zoomer, sur le bouton vert avec un tiret pour effectuer un zoom arrière, ou sur les flèches vertes pour les cartes adjacentes.


METAR-TAF: